sensor_id;sensor_type;location;lat;lon;timestamp;P1;durP1;ratioP1;P2;durP2;ratioP2
41456;SDS011;27197;51.752;5.220;2023-07-28T00:00:31;2.75;;;2.02;;
41456;SDS011;27197;51.752;5.220;2023-07-28T00:03:01;3.62;;;3.20;;
41456;SDS011;27197;51.752;5.220;2023-07-28T00:05:31;5.80;;;3.52;;
41456;SDS011;27197;51.752;5.220;2023-07-28T00:08:04;4.33;;;3.52;;
41456;SDS011;27197;51.752;5.220;2023-07-28T00:10:39;3.85;;;3.42;;
41456;SDS011;27197;51.752;5.220;2023-07-28T00:13:12;4.15;;;3.10;;
41456;SDS011;27197;51.752;5.220;2023-07-28T00:15:42;4.20;;;3.20;;
41456;SDS011;27197;51.752;5.220;2023-07-28T00:18:16;3.98;;;3.25;;
41456;SDS011;27197;51.752;5.220;2023-07-28T00:20:46;5.50;;;3.67;;
41456;SDS011;27197;51.752;5.220;2023-07-28T00:23:20;4.75;;;4.00;;
41456;SDS011;27197;51.752;5.220;2023-07-28T00:25:49;4.42;;;2.90;;
41456;SDS011;27197;51.752;5.220;2023-07-28T00:28:22;5.45;;;3.77;;
41456;SDS011;27197;51.752;5.220;2023-07-28T00:30:53;4.67;;;3.40;;
41456;SDS011;27197;51.752;5.220;2023-07-28T00:33:27;5.80;;;3.65;;
41456;SDS011;27197;51.752;5.220;2023-07-28T00:35:58;8.83;;;3.30;;
41456;SDS011;27197;51.752;5.220;2023-07-28T00:38:28;2.65;;;2.10;;
41456;SDS011;27197;51.752;5.220;2023-07-28T00:41:01;4.97;;;3.40;;
41456;SDS011;27197;51.752;5.220;2023-07-28T00:43:35;4.10;;;3.17;;
41456;SDS011;27197;51.752;5.220;2023-07-28T00:46:05;2.83;;;1.98;;
41456;SDS011;27197;51.752;5.220;2023-07-28T00:48:38;3.02;;;2.02;;
41456;SDS011;27197;51.752;5.220;2023-07-28T00:51:09;4.62;;;2.33;;
41456;SDS011;27197;51.752;5.220;2023-07-28T00:53:40;3.00;;;1.62;;
41456;SDS011;27197;51.752;5.220;2023-07-28T00:56:11;2.83;;;1.70;;
41456;SDS011;27197;51.752;5.220;2023-07-28T00:58:43;2.37;;;1.70;;
41456;SDS011;27197;51.752;5.220;2023-07-28T01:01:13;8.00;;;4.60;;
41456;SDS011;27197;51.752;5.220;2023-07-28T01:03:45;3.47;;;1.82;;
41456;SDS011;27197;51.752;5.220;2023-07-28T01:06:28;3.22;;;2.08;;
41456;SDS011;27197;51.752;5.220;2023-07-28T01:08:58;4.53;;;2.40;;
41456;SDS011;27197;51.752;5.220;2023-07-28T01:11:36;5.50;;;3.83;;
41456;SDS011;27197;51.752;5.220;2023-07-28T01:14:06;6.95;;;4.17;;
41456;SDS011;27197;51.752;5.220;2023-07-28T01:16:39;3.85;;;2.08;;
41456;SDS011;27197;51.752;5.220;2023-07-28T01:19:14;7.00;;;4.45;;
41456;SDS011;27197;51.752;5.220;2023-07-28T01:21:53;8.10;;;5.65;;
41456;SDS011;27197;51.752;5.220;2023-07-28T01:24:28;6.50;;;4.62;;
41456;SDS011;27197;51.752;5.220;2023-07-28T01:27:00;7.95;;;4.90;;
41456;SDS011;27197;51.752;5.220;2023-07-28T01:29:33;7.17;;;4.62;;
41456;SDS011;27197;51.752;5.220;2023-07-28T01:32:06;4.67;;;3.17;;
41456;SDS011;27197;51.752;5.220;2023-07-28T01:34:40;3.75;;;2.80;;
41456;SDS011;27197;51.752;5.220;2023-07-28T01:37:13;2.90;;;2.08;;
41456;SDS011;27197;51.752;5.220;2023-07-28T01:39:44;3.45;;;2.40;;
41456;SDS011;27197;51.752;5.220;2023-07-28T01:42:19;4.62;;;2.83;;
41456;SDS011;27197;51.752;5.220;2023-07-28T01:44:55;7.08;;;4.67;;
41456;SDS011;27197;51.752;5.220;2023-07-28T01:47:26;5.40;;;3.47;;
41456;SDS011;27197;51.752;5.220;2023-07-28T01:49:56;7.62;;;4.58;;
41456;SDS011;27197;51.752;5.220;2023-07-28T01:52:26;5.85;;;3.52;;
41456;SDS011;27197;51.752;5.220;2023-07-28T01:54:59;9.55;;;6.35;;
41456;SDS011;27197;51.752;5.220;2023-07-28T01:57:32;6.62;;;3.47;;
41456;SDS011;27197;51.752;5.220;2023-07-28T02:00:02;4.28;;;2.80;;
41456;SDS011;27197;51.752;5.220;2023-07-28T02:02:34;9.48;;;5.87;;
41456;SDS011;27197;51.752;5.220;2023-07-28T02:05:07;13.55;;;5.90;;
41456;SDS011;27197;51.752;5.220;2023-07-28T02:07:37;8.43;;;5.83;;
41456;SDS011;27197;51.752;5.220;2023-07-28T02:10:09;3.80;;;2.55;;
41456;SDS011;27197;51.752;5.220;2023-07-28T02:25:52;5.97;;;4.03;;
41456;SDS011;27197;51.752;5.220;2023-07-28T02:28:23;9.05;;;5.55;;
41456;SDS011;27197;51.752;5.220;2023-07-28T02:30:57;12.47;;;6.70;;
41456;SDS011;27197;51.752;5.220;2023-07-28T02:33:29;5.58;;;3.92;;
41456;SDS011;27197;51.752;5.220;2023-07-28T02:35:59;6.53;;;3.98;;
41456;SDS011;27197;51.752;5.220;2023-07-28T02:38:32;5.87;;;3.98;;
41456;SDS011;27197;51.752;5.220;2023-07-28T02:41:01;6.65;;;4.50;;
41456;SDS011;27197;51.752;5.220;2023-07-28T02:43:34;7.05;;;4.45;;
41456;SDS011;27197;51.752;5.220;2023-07-28T02:46:04;10.32;;;6.72;;
41456;SDS011;27197;51.752;5.220;2023-07-28T02:48:39;12.35;;;7.42;;
41456;SDS011;27197;51.752;5.220;2023-07-28T02:51:08;7.67;;;4.75;;
41456;SDS011;27197;51.752;5.220;2023-07-28T02:53:42;13.60;;;6.35;;
41456;SDS011;27197;51.752;5.220;2023-07-28T02:56:15;7.87;;;5.33;;
41456;SDS011;27197;51.752;5.220;2023-07-28T02:58:48;11.57;;;7.53;;
41456;SDS011;27197;51.752;5.220;2023-07-28T03:01:18;11.40;;;6.78;;
41456;SDS011;27197;51.752;5.220;2023-07-28T03:03:51;14.50;;;7.47;;
41456;SDS011;27197;51.752;5.220;2023-07-28T03:06:21;17.95;;;9.93;;
41456;SDS011;27197;51.752;5.220;2023-07-28T03:08:52;16.10;;;9.95;;
41456;SDS011;27197;51.752;5.220;2023-07-28T03:11:23;12.82;;;7.72;;
41456;SDS011;27197;51.752;5.220;2023-07-28T03:13:55;13.98;;;8.90;;
41456;SDS011;27197;51.752;5.220;2023-07-28T03:16:25;10.08;;;5.62;;
41456;SDS011;27197;51.752;5.220;2023-07-28T03:18:55;9.98;;;6.10;;
41456;SDS011;27197;51.752;5.220;2023-07-28T03:21:29;17.40;;;9.35;;
41456;SDS011;27197;51.752;5.220;2023-07-28T03:23:59;8.10;;;4.53;;
41456;SDS011;27197;51.752;5.220;2023-07-28T03:29:10;18.60;;;10.75;;
41456;SDS011;27197;51.752;5.220;2023-07-28T03:31:38;15.60;;;8.58;;
41456;SDS011;27197;51.752;5.220;2023-07-28T03:34:08;11.10;;;5.87;;
41456;SDS011;27197;51.752;5.220;2023-07-28T03:36:38;10.72;;;6.67;;
41456;SDS011;27197;51.752;5.220;2023-07-28T03:39:07;15.58;;;8.43;;
41456;SDS011;27197;51.752;5.220;2023-07-28T03:41:38;20.08;;;12.25;;
41456;SDS011;27197;51.752;5.220;2023-07-28T03:44:08;10.65;;;6.58;;
41456;SDS011;27197;51.752;5.220;2023-07-28T03:46:39;20.97;;;11.80;;
41456;SDS011;27197;51.752;5.220;2023-07-28T03:49:09;16.23;;;9.65;;
41456;SDS011;27197;51.752;5.220;2023-07-28T03:51:41;16.35;;;9.85;;
41456;SDS011;27197;51.752;5.220;2023-07-28T03:54:11;8.88;;;5.20;;
41456;SDS011;27197;51.752;5.220;2023-07-28T03:56:42;15.40;;;8.75;;
41456;SDS011;27197;51.752;5.220;2023-07-28T03:59:12;14.20;;;9.30;;
41456;SDS011;27197;51.752;5.220;2023-07-28T04:01:42;14.95;;;9.08;;
41456;SDS011;27197;51.752;5.220;2023-07-28T04:04:14;8.70;;;5.58;;
41456;SDS011;27197;51.752;5.220;2023-07-28T04:06:45;11.65;;;6.97;;
41456;SDS011;27197;51.752;5.220;2023-07-28T04:09:19;9.55;;;6.75;;
41456;SDS011;27197;51.752;5.220;2023-07-28T04:11:49;8.03;;;5.47;;
41456;SDS011;27197;51.752;5.220;2023-07-28T04:14:21;19.42;;;11.85;;
41456;SDS011;27197;51.752;5.220;2023-07-28T04:16:54;12.50;;;8.55;;
41456;SDS011;27197;51.752;5.220;2023-07-28T04:19:26;20.90;;;13.38;;
41456;SDS011;27197;51.752;5.220;2023-07-28T04:21:59;21.50;;;12.28;;
41456;SDS011;27197;51.752;5.220;2023-07-28T04:24:30;27.32;;;14.73;;
41456;SDS011;27197;51.752;5.220;2023-07-28T04:27:00;20.50;;;13.18;;
41456;SDS011;27197;51.752;5.220;2023-07-28T04:29:33;14.00;;;8.58;;
41456;SDS011;27197;51.752;5.220;2023-07-28T04:32:03;20.45;;;12.55;;
41456;SDS011;27197;51.752;5.220;2023-07-28T04:34:34;13.10;;;7.72;;
41456;SDS011;27197;51.752;5.220;2023-07-28T04:37:08;18.62;;;11.83;;
41456;SDS011;27197;51.752;5.220;2023-07-28T04:39:41;24.87;;;14.85;;
41456;SDS011;27197;51.752;5.220;2023-07-28T04:42:12;21.95;;;14.90;;
41456;SDS011;27197;51.752;5.220;2023-07-28T04:44:41;15.18;;;8.35;;
41456;SDS011;27197;51.752;5.220;2023-07-28T04:47:13;14.98;;;9.15;;
41456;SDS011;27197;51.752;5.220;2023-07-28T04:49:43;8.90;;;6.35;;
41456;SDS011;27197;51.752;5.220;2023-07-28T04:52:15;19.92;;;13.25;;
41456;SDS011;27197;51.752;5.220;2023-07-28T04:54:46;10.48;;;6.90;;
41456;SDS011;27197;51.752;5.220;2023-07-28T04:57:16;23.22;;;14.15;;
41456;SDS011;27197;51.752;5.220;2023-07-28T04:59:51;17.65;;;9.85;;
41456;SDS011;27197;51.752;5.220;2023-07-28T05:02:25;21.75;;;10.95;;
41456;SDS011;27197;51.752;5.220;2023-07-28T05:04:57;10.72;;;7.33;;
41456;SDS011;27197;51.752;5.220;2023-07-28T05:07:31;20.12;;;13.38;;
41456;SDS011;27197;51.752;5.220;2023-07-28T05:10:01;11.95;;;8.10;;
41456;SDS011;27197;51.752;5.220;2023-07-28T05:12:33;19.23;;;10.25;;
41456;SDS011;27197;51.752;5.220;2023-07-28T05:15:05;23.38;;;13.65;;
41456;SDS011;27197;51.752;5.220;2023-07-28T05:17:39;20.50;;;12.90;;
41456;SDS011;27197;51.752;5.220;2023-07-28T05:20:08;17.45;;;10.93;;
41456;SDS011;27197;51.752;5.220;2023-07-28T05:22:41;17.40;;;10.15;;
41456;SDS011;27197;51.752;5.220;2023-07-28T05:25:09;23.22;;;13.28;;
41456;SDS011;27197;51.752;5.220;2023-07-28T05:27:43;25.57;;;14.58;;
41456;SDS011;27197;51.752;5.220;2023-07-28T05:30:14;21.00;;;12.60;;
41456;SDS011;27197;51.752;5.220;2023-07-28T05:32:46;14.30;;;8.83;;
41456;SDS011;27197;51.752;5.220;2023-07-28T05:35:15;18.25;;;12.13;;
41456;SDS011;27197;51.752;5.220;2023-07-28T05:37:49;28.87;;;15.15;;
41456;SDS011;27197;51.752;5.220;2023-07-28T05:40:20;27.50;;;14.87;;
41456;SDS011;27197;51.752;5.220;2023-07-28T05:42:53;25.02;;;14.07;;
41456;SDS011;27197;51.752;5.220;2023-07-28T05:45:24;21.77;;;14.18;;
41456;SDS011;27197;51.752;5.220;2023-07-28T05:47:58;13.72;;;8.58;;
41456;SDS011;27197;51.752;5.220;2023-07-28T05:50:30;21.87;;;13.65;;
41456;SDS011;27197;51.752;5.220;2023-07-28T05:53:01;27.00;;;13.72;;
41456;SDS011;27197;51.752;5.220;2023-07-28T05:55:31;22.07;;;12.43;;
41456;SDS011;27197;51.752;5.220;2023-07-28T05:58:01;20.92;;;11.12;;
41456;SDS011;27197;51.752;5.220;2023-07-28T06:00:33;20.92;;;13.60;;
41456;SDS011;27197;51.752;5.220;2023-07-28T06:03:02;21.55;;;12.47;;
41456;SDS011;27197;51.752;5.220;2023-07-28T06:05:32;24.55;;;14.93;;
41456;SDS011;27197;51.752;5.220;2023-07-28T06:08:03;24.18;;;11.53;;
41456;SDS011;27197;51.752;5.220;2023-07-28T06:10:38;21.12;;;12.03;;
41456;SDS011;27197;51.752;5.220;2023-07-28T06:13:08;29.00;;;11.75;;
41456;SDS011;27197;51.752;5.220;2023-07-28T06:15:42;17.87;;;11.22;;
41456;SDS011;27197;51.752;5.220;2023-07-28T06:18:12;18.20;;;9.15;;
41456;SDS011;27197;51.752;5.220;2023-07-28T06:20:43;17.48;;;11.25;;
41456;SDS011;27197;51.752;5.220;2023-07-28T06:23:13;17.20;;;11.00;;
41456;SDS011;27197;51.752;5.220;2023-07-28T06:25:47;20.48;;;10.72;;
41456;SDS011;27197;51.752;5.220;2023-07-28T06:28:17;25.45;;;15.05;;
41456;SDS011;27197;51.752;5.220;2023-07-28T06:30:58;15.40;;;9.28;;
41456;SDS011;27197;51.752;5.220;2023-07-28T06:33:21;23.35;;;14.18;;
41456;SDS011;27197;51.752;5.220;2023-07-28T06:35:52;15.65;;;9.95;;
41456;SDS011;27197;51.752;5.220;2023-07-28T06:38:23;16.27;;;10.00;;
41456;SDS011;27197;51.752;5.220;2023-07-28T06:40:52;19.75;;;12.18;;
41456;SDS011;27197;51.752;5.220;2023-07-28T06:43:26;20.77;;;10.30;;
41456;SDS011;27197;51.752;5.220;2023-07-28T06:45:56;22.85;;;13.22;;
41456;SDS011;27197;51.752;5.220;2023-07-28T06:48:29;18.30;;;12.45;;
41456;SDS011;27197;51.752;5.220;2023-07-28T06:51:02;19.07;;;12.58;;
41456;SDS011;27197;51.752;5.220;2023-07-28T06:53:32;22.00;;;13.83;;
41456;SDS011;27197;51.752;5.220;2023-07-28T06:56:03;17.77;;;12.55;;
41456;SDS011;27197;51.752;5.220;2023-07-28T06:58:33;18.35;;;11.43;;
41456;SDS011;27197;51.752;5.220;2023-07-28T07:01:03;23.30;;;12.40;;
41456;SDS011;27197;51.752;5.220;2023-07-28T07:03:35;22.40;;;13.95;;
41456;SDS011;27197;51.752;5.220;2023-07-28T07:06:05;17.30;;;12.53;;
41456;SDS011;27197;51.752;5.220;2023-07-28T07:08:35;13.78;;;9.93;;
41456;SDS011;27197;51.752;5.220;2023-07-28T07:11:08;10.45;;;7.28;;
41456;SDS011;27197;51.752;5.220;2023-07-28T07:13:39;17.50;;;10.95;;
41456;SDS011;27197;51.752;5.220;2023-07-28T07:16:15;14.95;;;9.13;;
41456;SDS011;27197;51.752;5.220;2023-07-28T07:18:46;14.10;;;7.92;;
41456;SDS011;27197;51.752;5.220;2023-07-28T07:21:15;15.00;;;10.38;;
41456;SDS011;27197;51.752;5.220;2023-07-28T07:23:45;16.27;;;10.60;;
41456;SDS011;27197;51.752;5.220;2023-07-28T07:26:16;16.73;;;11.08;;
41456;SDS011;27197;51.752;5.220;2023-07-28T07:28:45;11.25;;;7.28;;
41456;SDS011;27197;51.752;5.220;2023-07-28T07:31:15;13.53;;;8.03;;
41456;SDS011;27197;51.752;5.220;2023-07-28T07:33:45;12.05;;;6.80;;
41456;SDS011;27197;51.752;5.220;2023-07-28T07:36:19;12.88;;;7.70;;
41456;SDS011;27197;51.752;5.220;2023-07-28T07:38:47;15.35;;;10.00;;
41456;SDS011;27197;51.752;5.220;2023-07-28T07:41:15;16.60;;;10.40;;
41456;SDS011;27197;51.752;5.220;2023-07-28T07:43:46;17.07;;;11.60;;
41456;SDS011;27197;51.752;5.220;2023-07-28T07:46:19;14.28;;;9.40;;
41456;SDS011;27197;51.752;5.220;2023-07-28T07:48:49;14.63;;;7.85;;
41456;SDS011;27197;51.752;5.220;2023-07-28T07:51:21;11.08;;;8.20;;
41456;SDS011;27197;51.752;5.220;2023-07-28T07:53:53;11.15;;;7.92;;
41456;SDS011;27197;51.752;5.220;2023-07-28T07:56:24;18.23;;;11.63;;
41456;SDS011;27197;51.752;5.220;2023-07-28T07:58:53;15.98;;;10.88;;
41456;SDS011;27197;51.752;5.220;2023-07-28T08:01:23;17.27;;;11.45;;
41456;SDS011;27197;51.752;5.220;2023-07-28T08:03:54;12.00;;;7.12;;
41456;SDS011;27197;51.752;5.220;2023-07-28T08:06:28;17.77;;;11.05;;
41456;SDS011;27197;51.752;5.220;2023-07-28T08:09:03;16.05;;;11.40;;
41456;SDS011;27197;51.752;5.220;2023-07-28T08:11:32;10.40;;;7.33;;
41456;SDS011;27197;51.752;5.220;2023-07-28T08:14:04;17.00;;;10.65;;
41456;SDS011;27197;51.752;5.220;2023-07-28T08:16:34;10.00;;;6.55;;
41456;SDS011;27197;51.752;5.220;2023-07-28T08:19:07;14.35;;;8.95;;
41456;SDS011;27197;51.752;5.220;2023-07-28T08:21:37;21.50;;;12.50;;
41456;SDS011;27197;51.752;5.220;2023-07-28T08:24:07;13.98;;;8.43;;
41456;SDS011;27197;51.752;5.220;2023-07-28T08:26:37;16.75;;;10.35;;
41456;SDS011;27197;51.752;5.220;2023-07-28T08:29:08;8.88;;;7.00;;
41456;SDS011;27197;51.752;5.220;2023-07-28T08:31:39;9.10;;;6.20;;
41456;SDS011;27197;51.752;5.220;2023-07-28T08:34:12;11.12;;;7.47;;
41456;SDS011;27197;51.752;5.220;2023-07-28T08:36:43;15.45;;;9.38;;
41456;SDS011;27197;51.752;5.220;2023-07-28T08:39:14;9.23;;;6.90;;
41456;SDS011;27197;51.752;5.220;2023-07-28T08:41:46;14.20;;;9.20;;
41456;SDS011;27197;51.752;5.220;2023-07-28T08:44:16;19.30;;;12.25;;
41456;SDS011;27197;51.752;5.220;2023-07-28T08:46:46;16.67;;;12.58;;
41456;SDS011;27197;51.752;5.220;2023-07-28T08:49:19;14.20;;;9.38;;
41456;SDS011;27197;51.752;5.220;2023-07-28T08:57:29;18.57;;;13.60;;
41456;SDS011;27197;51.752;5.220;2023-07-28T08:59:57;15.58;;;9.30;;
41456;SDS011;27197;51.752;5.220;2023-07-28T09:02:26;13.32;;;8.63;;
41456;SDS011;27197;51.752;5.220;2023-07-28T09:04:58;16.37;;;11.50;;
41456;SDS011;27197;51.752;5.220;2023-07-28T09:07:36;15.90;;;10.80;;
41456;SDS011;27197;51.752;5.220;2023-07-28T09:10:05;12.85;;;8.83;;
41456;SDS011;27197;51.752;5.220;2023-07-28T09:12:44;13.08;;;8.55;;
41456;SDS011;27197;51.752;5.220;2023-07-28T09:15:17;18.73;;;8.70;;
41456;SDS011;27197;51.752;5.220;2023-07-28T09:17:49;14.93;;;8.48;;
41456;SDS011;27197;51.752;5.220;2023-07-28T09:20:24;13.88;;;10.03;;
41456;SDS011;27197;51.752;5.220;2023-07-28T09:22:55;13.58;;;8.80;;
41456;SDS011;27197;51.752;5.220;2023-07-28T09:25:27;16.45;;;9.83;;
41456;SDS011;27197;51.752;5.220;2023-07-28T09:28:00;15.25;;;10.43;;
41456;SDS011;27197;51.752;5.220;2023-07-28T09:30:42;11.12;;;8.15;;
41456;SDS011;27197;51.752;5.220;2023-07-28T09:33:12;15.15;;;9.78;;
41456;SDS011;27197;51.752;5.220;2023-07-28T09:35:51;12.53;;;8.55;;
41456;SDS011;27197;51.752;5.220;2023-07-28T09:38:17;14.03;;;9.13;;
41456;SDS011;27197;51.752;5.220;2023-07-28T09:40:50;12.58;;;8.30;;
41456;SDS011;27197;51.752;5.220;2023-07-28T09:43:21;12.47;;;7.83;;
41456;SDS011;27197;51.752;5.220;2023-07-28T09:45:55;11.75;;;8.40;;
41456;SDS011;27197;51.752;5.220;2023-07-28T09:48:25;14.10;;;9.73;;
41456;SDS011;27197;51.752;5.220;2023-07-28T09:50:57;13.13;;;8.38;;
41456;SDS011;27197;51.752;5.220;2023-07-28T09:53:31;14.83;;;8.93;;
41456;SDS011;27197;51.752;5.220;2023-07-28T09:56:04;12.40;;;9.15;;
41456;SDS011;27197;51.752;5.220;2023-07-28T09:58:37;14.43;;;8.80;;
41456;SDS011;27197;51.752;5.220;2023-07-28T10:01:09;12.75;;;8.90;;
41456;SDS011;27197;51.752;5.220;2023-07-28T10:03:40;14.47;;;9.60;;
41456;SDS011;27197;51.752;5.220;2023-07-28T10:06:12;14.53;;;10.18;;
41456;SDS011;27197;51.752;5.220;2023-07-28T10:08:47;13.70;;;9.90;;
41456;SDS011;27197;51.752;5.220;2023-07-28T10:11:17;14.95;;;9.13;;
41456;SDS011;27197;51.752;5.220;2023-07-28T10:13:50;11.60;;;7.90;;
41456;SDS011;27197;51.752;5.220;2023-07-28T10:16:45;13.48;;;8.35;;
41456;SDS011;27197;51.752;5.220;2023-07-28T10:19:08;11.22;;;7.85;;
41456;SDS011;27197;51.752;5.220;2023-07-28T10:21:42;11.05;;;7.67;;
41456;SDS011;27197;51.752;5.220;2023-07-28T10:24:12;12.07;;;7.45;;
41456;SDS011;27197;51.752;5.220;2023-07-28T10:26:49;10.10;;;7.28;;
41456;SDS011;27197;51.752;5.220;2023-07-28T10:29:18;11.53;;;7.30;;
41456;SDS011;27197;51.752;5.220;2023-07-28T10:31:52;10.75;;;7.08;;
41456;SDS011;27197;51.752;5.220;2023-07-28T10:34:27;10.48;;;7.12;;
41456;SDS011;27197;51.752;5.220;2023-07-28T10:37:01;9.48;;;6.87;;
41456;SDS011;27197;51.752;5.220;2023-07-28T10:39:31;8.05;;;5.92;;
41456;SDS011;27197;51.752;5.220;2023-07-28T10:42:03;9.88;;;6.90;;
41456;SDS011;27197;51.752;5.220;2023-07-28T10:44:32;9.90;;;6.53;;
41456;SDS011;27197;51.752;5.220;2023-07-28T10:47:10;15.40;;;7.05;;
41456;SDS011;27197;51.752;5.220;2023-07-28T10:49:38;8.10;;;5.95;;
41456;SDS011;27197;51.752;5.220;2023-07-28T10:52:12;9.78;;;6.62;;
41456;SDS011;27197;51.752;5.220;2023-07-28T10:54:43;9.75;;;5.35;;
41456;SDS011;27197;51.752;5.220;2023-07-28T11:00:22;8.65;;;6.08;;
41456;SDS011;27197;51.752;5.220;2023-07-28T11:02:51;9.73;;;6.45;;
41456;SDS011;27197;51.752;5.220;2023-07-28T11:05:20;8.53;;;6.05;;
41456;SDS011;27197;51.752;5.220;2023-07-28T11:07:55;7.37;;;5.42;;
41456;SDS011;27197;51.752;5.220;2023-07-28T11:10:29;9.78;;;6.62;;
41456;SDS011;27197;51.752;5.220;2023-07-28T11:15:41;7.22;;;5.28;;
41456;SDS011;27197;51.752;5.220;2023-07-28T11:18:14;6.60;;;5.47;;
41456;SDS011;27197;51.752;5.220;2023-07-28T11:20:44;7.03;;;5.05;;
41456;SDS011;27197;51.752;5.220;2023-07-28T11:23:19;9.38;;;5.65;;
41456;SDS011;27197;51.752;5.220;2023-07-28T11:25:55;7.00;;;4.95;;
41456;SDS011;27197;51.752;5.220;2023-07-28T11:28:27;5.90;;;4.55;;
41456;SDS011;27197;51.752;5.220;2023-07-28T11:30:57;7.00;;;4.97;;
41456;SDS011;27197;51.752;5.220;2023-07-28T11:33:31;6.20;;;4.60;;
41456;SDS011;27197;51.752;5.220;2023-07-28T11:36:00;6.53;;;4.97;;
41456;SDS011;27197;51.752;5.220;2023-07-28T11:38:30;9.45;;;5.62;;
41456;SDS011;27197;51.752;5.220;2023-07-28T11:41:01;7.00;;;5.42;;
41456;SDS011;27197;51.752;5.220;2023-07-28T11:43:35;8.10;;;5.40;;
41456;SDS011;27197;51.752;5.220;2023-07-28T11:46:31;7.58;;;5.33;;
41456;SDS011;27197;51.752;5.220;2023-07-28T11:48:41;11.93;;;6.08;;
41456;SDS011;27197;51.752;5.220;2023-07-28T11:51:12;6.75;;;4.90;;
41456;SDS011;27197;51.752;5.220;2023-07-28T11:53:48;8.60;;;5.50;;
41456;SDS011;27197;51.752;5.220;2023-07-28T11:56:17;7.72;;;5.37;;
41456;SDS011;27197;51.752;5.220;2023-07-28T11:58:54;8.40;;;5.50;;
41456;SDS011;27197;51.752;5.220;2023-07-28T12:01:23;8.20;;;4.65;;
41456;SDS011;27197;51.752;5.220;2023-07-28T12:03:53;7.33;;;4.97;;
41456;SDS011;27197;51.752;5.220;2023-07-28T12:06:26;9.58;;;7.08;;
41456;SDS011;27197;51.752;5.220;2023-07-28T12:09:04;10.45;;;5.75;;
41456;SDS011;27197;51.752;5.220;2023-07-28T12:11:42;9.23;;;6.75;;
41456;SDS011;27197;51.752;5.220;2023-07-28T12:14:12;7.25;;;5.28;;
41456;SDS011;27197;51.752;5.220;2023-07-28T12:16:47;7.67;;;4.72;;
41456;SDS011;27197;51.752;5.220;2023-07-28T12:19:16;6.53;;;4.70;;
41456;SDS011;27197;51.752;5.220;2023-07-28T12:21:48;7.40;;;4.60;;
41456;SDS011;27197;51.752;5.220;2023-07-28T12:24:21;9.10;;;5.30;;
41456;SDS011;27197;51.752;5.220;2023-07-28T12:26:52;8.13;;;5.90;;
41456;SDS011;27197;51.752;5.220;2023-07-28T12:29:25;8.00;;;5.70;;
41456;SDS011;27197;51.752;5.220;2023-07-28T12:31:56;8.00;;;5.22;;
41456;SDS011;27197;51.752;5.220;2023-07-28T12:34:28;6.80;;;4.58;;
41456;SDS011;27197;51.752;5.220;2023-07-28T12:36:58;7.22;;;4.55;;
41456;SDS011;27197;51.752;5.220;2023-07-28T12:39:32;8.05;;;5.78;;
41456;SDS011;27197;51.752;5.220;2023-07-28T12:42:03;5.47;;;4.42;;
41456;SDS011;27197;51.752;5.220;2023-07-28T12:44:38;5.90;;;4.60;;
41456;SDS011;27197;51.752;5.220;2023-07-28T12:47:08;6.37;;;4.35;;
41456;SDS011;27197;51.752;5.220;2023-07-28T12:49:42;5.10;;;3.92;;
41456;SDS011;27197;51.752;5.220;2023-07-28T12:52:10;6.45;;;4.78;;
41456;SDS011;27197;51.752;5.220;2023-07-28T12:54:44;6.53;;;4.33;;
41456;SDS011;27197;51.752;5.220;2023-07-28T12:57:15;6.75;;;4.05;;
41456;SDS011;27197;51.752;5.220;2023-07-28T12:59:49;7.83;;;4.90;;
41456;SDS011;27197;51.752;5.220;2023-07-28T13:02:19;9.43;;;5.62;;
41456;SDS011;27197;51.752;5.220;2023-07-28T13:04:49;9.18;;;6.25;;
41456;SDS011;27197;51.752;5.220;2023-07-28T13:07:20;8.10;;;5.97;;
41456;SDS011;27197;51.752;5.220;2023-07-28T13:09:55;7.08;;;4.67;;
41456;SDS011;27197;51.752;5.220;2023-07-28T13:12:25;8.35;;;5.67;;
41456;SDS011;27197;51.752;5.220;2023-07-28T13:14:54;6.78;;;4.30;;
41456;SDS011;27197;51.752;5.220;2023-07-28T13:17:31;7.62;;;4.85;;
41456;SDS011;27197;51.752;5.220;2023-07-28T13:20:00;8.58;;;4.60;;
41456;SDS011;27197;51.752;5.220;2023-07-28T13:38:31;14.83;;;8.98;;
41456;SDS011;27197;51.752;5.220;2023-07-28T13:41:04;15.53;;;10.70;;
41456;SDS011;27197;51.752;5.220;2023-07-28T13:43:35;12.80;;;10.25;;
41456;SDS011;27197;51.752;5.220;2023-07-28T13:46:08;17.15;;;12.37;;
41456;SDS011;27197;51.752;5.220;2023-07-28T13:48:42;17.62;;;12.93;;
41456;SDS011;27197;51.752;5.220;2023-07-28T13:51:12;17.25;;;12.37;;
41456;SDS011;27197;51.752;5.220;2023-07-28T13:53:44;10.82;;;7.97;;
41456;SDS011;27197;51.752;5.220;2023-07-28T13:56:15;12.15;;;9.13;;
41456;SDS011;27197;51.752;5.220;2023-07-28T13:58:52;15.35;;;10.72;;
41456;SDS011;27197;51.752;5.220;2023-07-28T14:25:01;16.23;;;11.25;;
41456;SDS011;27197;51.752;5.220;2023-07-28T14:27:33;12.70;;;10.15;;
41456;SDS011;27197;51.752;5.220;2023-07-28T14:35:08;6.80;;;5.08;;
41456;SDS011;27197;51.752;5.220;2023-07-28T14:37:38;11.08;;;9.03;;
41456;SDS011;27197;51.752;5.220;2023-07-28T14:40:12;7.97;;;6.05;;
41456;SDS011;27197;51.752;5.220;2023-07-28T14:42:45;12.60;;;8.83;;
41456;SDS011;27197;51.752;5.220;2023-07-28T14:45:15;10.50;;;8.60;;
41456;SDS011;27197;51.752;5.220;2023-07-28T14:47:46;10.80;;;7.85;;
41456;SDS011;27197;51.752;5.220;2023-07-28T14:50:21;11.15;;;7.70;;
41456;SDS011;27197;51.752;5.220;2023-07-28T14:52:51;8.25;;;6.62;;
41456;SDS011;27197;51.752;5.220;2023-07-28T14:55:24;10.23;;;7.85;;
41456;SDS011;27197;51.752;5.220;2023-07-28T14:57:53;8.05;;;6.45;;
41456;SDS011;27197;51.752;5.220;2023-07-28T15:00:23;10.85;;;8.28;;
41456;SDS011;27197;51.752;5.220;2023-07-28T15:02:56;6.87;;;5.78;;
41456;SDS011;27197;51.752;5.220;2023-07-28T15:05:26;10.08;;;8.38;;
41456;SDS011;27197;51.752;5.220;2023-07-28T15:07:57;6.10;;;5.17;;
41456;SDS011;27197;51.752;5.220;2023-07-28T15:10:26;10.70;;;8.35;;
41456;SDS011;27197;51.752;5.220;2023-07-28T15:12:59;8.73;;;7.08;;
41456;SDS011;27197;51.752;5.220;2023-07-28T15:15:30;11.40;;;8.88;;
41456;SDS011;27197;51.752;5.220;2023-07-28T15:18:02;14.70;;;9.70;;
41456;SDS011;27197;51.752;5.220;2023-07-28T15:20:39;11.53;;;9.65;;
41456;SDS011;27197;51.752;5.220;2023-07-28T15:23:09;9.10;;;7.42;;
41456;SDS011;27197;51.752;5.220;2023-07-28T15:25:42;12.53;;;10.43;;
41456;SDS011;27197;51.752;5.220;2023-07-28T15:28:15;8.08;;;6.42;;
41456;SDS011;27197;51.752;5.220;2023-07-28T15:30:49;9.45;;;7.22;;
41456;SDS011;27197;51.752;5.220;2023-07-28T15:33:20;8.08;;;6.60;;
41456;SDS011;27197;51.752;5.220;2023-07-28T15:35:51;11.78;;;9.88;;
41456;SDS011;27197;51.752;5.220;2023-07-28T15:38:21;14.05;;;10.38;;
41456;SDS011;27197;51.752;5.220;2023-07-28T15:40:53;9.85;;;8.05;;
41456;SDS011;27197;51.752;5.220;2023-07-28T15:43:23;9.43;;;8.10;;
41456;SDS011;27197;51.752;5.220;2023-07-28T15:45:56;8.78;;;7.60;;
41456;SDS011;27197;51.752;5.220;2023-07-28T15:48:27;9.60;;;8.43;;
41456;SDS011;27197;51.752;5.220;2023-07-28T15:50:58;7.55;;;6.25;;
41456;SDS011;27197;51.752;5.220;2023-07-28T15:53:28;8.03;;;6.28;;
41456;SDS011;27197;51.752;5.220;2023-07-28T15:56:01;8.08;;;6.78;;
41456;SDS011;27197;51.752;5.220;2023-07-28T15:58:32;6.40;;;5.25;;
41456;SDS011;27197;51.752;5.220;2023-07-28T16:01:02;8.30;;;5.75;;
41456;SDS011;27197;51.752;5.220;2023-07-28T16:03:33;8.13;;;6.92;;
41456;SDS011;27197;51.752;5.220;2023-07-28T16:06:02;8.05;;;7.03;;
41456;SDS011;27197;51.752;5.220;2023-07-28T16:08:32;8.45;;;6.58;;
41456;SDS011;27197;51.752;5.220;2023-07-28T16:11:05;8.48;;;6.87;;
41456;SDS011;27197;51.752;5.220;2023-07-28T16:13:40;10.68;;;6.90;;